Time;durP1;ratioP1;P1;durP2;ratioP2;P2;SDS_P1;SDS_P2;PMS_P1;PMS_P2;Temp;Humidity;BMP_temperature;BMP_pressure;BME280_temperature;BME280_humidity;BME280_pressure;Samples;Min_cycle;Max_cycle;Signal;HPM_P1;HPM_P2
2023/07/15 00:00:48;;;;;;;;;;;19.10;99.90;;;;;;5073548;28;19911;-68
2023/07/15 00:03:16;;;;;;;;;;;19.30;99.90;;;;;;5073516;28;24114;-68
2023/07/15 00:05:42;;;;;;;;;;;19.50;99.90;;;;;;5072889;28;24155;-67
2023/07/15 00:08:09;;;;;;;;;;;19.60;99.90;;;;;;5072953;28;19993;-67
2023/07/15 00:10:37;;;;;;;;;;;19.70;99.90;;;;;;5071164;28;25129;-67
2023/07/15 00:13:04;;;;;;;;;;;19.90;99.90;;;;;;5071514;28;19926;-68
2023/07/15 00:15:30;;;;;;;;;;;20.10;99.90;;;;;;5073104;28;19956;-68
2023/07/15 00:17:57;;;;;;;;;;;20.30;99.90;;;;;;5072967;28;25108;-69
2023/07/15 00:20:24;;;;;;;;;;;20.40;99.90;;;;;;5072616;28;25080;-68
2023/07/15 00:22:50;;;;;;;;;;;20.20;99.90;;;;;;5072858;28;24108;-68
2023/07/15 00:25:20;;;;;;;;;;;20.40;99.90;;;;;;5072572;28;19912;-68
2023/07/15 00:27:47;;;;;;;;;;;20.60;99.90;;;;;;5072243;28;19956;-69
2023/07/15 00:30:15;;;;;;;;;;;20.80;99.90;;;;;;5072966;28;19957;-69
2023/07/15 00:32:45;;;;;;;;;;;21.00;99.90;;;;;;5072398;28;20057;-70
2023/07/15 00:35:28;;;;;;;;;;;21.00;99.90;;;;;;5073309;28;19949;-71
2023/07/15 00:37:58;;;;;;;;;;;21.00;99.90;;;;;;5071939;28;20006;-71
2023/07/15 00:40:29;;;;;;;;;;;21.20;99.90;;;;;;5072867;28;19959;-69
2023/07/15 00:43:13;;;;;;;;;;;21.30;99.90;;;;;;5072844;28;20127;-69
2023/07/15 00:45:40;;;;;;;;;;;21.20;99.90;;;;;;5072268;28;25055;-71
2023/07/15 00:48:14;;;;;;;;;;;21.30;99.90;;;;;;5072856;28;20473;-68
2023/07/15 00:50:42;;;;;;;;;;;21.50;99.90;;;;;;5072701;28;19949;-69
2023/07/15 00:53:13;;;;;;;;;;;21.70;99.90;;;;;;5072443;28;19915;-69
2023/07/15 00:55:39;;;;;;;;;;;21.80;99.90;;;;;;5072639;28;24138;-70
2023/07/15 00:58:06;;;;;;;;;;;21.80;99.90;;;;;;5072173;28;19904;-68
2023/07/15 01:00:33;;;;;;;;;;;21.70;99.90;;;;;;5071111;28;19973;-69
2023/07/15 01:03:00;;;;;;;;;;;21.70;99.90;;;;;;5072290;28;25060;-68
2023/07/15 01:05:28;;;;;;;;;;;22.20;99.90;;;;;;5072752;28;25143;-68
2023/07/15 01:07:55;;;;;;;;;;;22.20;99.90;;;;;;5072482;28;25134;-71
2023/07/15 01:10:21;;;;;;;;;;;22.70;99.90;;;;;;5072728;28;19963;-68
2023/07/15 01:12:48;;;;;;;;;;;22.40;99.90;;;;;;5072918;28;19969;-68
2023/07/15 01:15:14;;;;;;;;;;;22.30;99.90;;;;;;5072214;28;20521;-69
2023/07/15 01:17:41;;;;;;;;;;;22.50;99.90;;;;;;5072104;28;20472;-68
2023/07/15 01:20:08;;;;;;;;;;;22.80;99.90;;;;;;5073933;28;25410;-68
2023/07/15 01:22:35;;;;;;;;;;;22.70;99.90;;;;;;5072635;28;20005;-68
2023/07/15 01:25:05;;;;;;;;;;;23.10;99.90;;;;;;5072214;28;25121;-69
2023/07/15 01:27:32;;;;;;;;;;;23.50;99.90;;;;;;5071803;28;25108;-68
2023/07/15 01:29:58;;;;;;;;;;;24.10;99.90;;;;;;5071506;28;19978;-69
2023/07/15 01:32:25;;;;;;;;;;;24.30;99.10;;;;;;5071628;28;19968;-69
2023/07/15 01:34:52;;;;;;;;;;;23.70;96.20;;;;;;5071555;28;19984;-68
2023/07/15 01:37:18;;;;;;;;;;;24.00;98.60;;;;;;5071495;28;20095;-69
2023/07/15 01:39:47;;;;;;;;;;;24.60;95.50;;;;;;5071167;28;20086;-68
2023/07/15 01:42:13;;;;;;;;;;;24.60;92.40;;;;;;5072085;28;20212;-67
2023/07/15 01:44:40;;;;;;;;;;;24.50;93.70;;;;;;5071689;28;20226;-68
2023/07/15 01:47:07;;;;;;;;;;;25.00;94.00;;;;;;5071500;28;20421;-67
2023/07/15 01:49:33;;;;;;;;;;;24.90;90.50;;;;;;5073500;28;20054;-69
2023/07/15 01:52:00;;;;;;;;;;;25.00;90.20;;;;;;5075166;28;20087;-68
2023/07/15 01:54:27;;;;;;;;;;;25.40;83.30;;;;;;5075457;28;19970;-72
2023/07/15 01:56:53;;;;;;;;;;;25.20;73.00;;;;;;5075386;28;20086;-72
2023/07/15 01:59:20;;;;;;;;;;;25.10;73.90;;;;;;5075116;28;20176;-71
2023/07/15 02:01:47;;;;;;;;;;;25.00;71.60;;;;;;5075007;28;20078;-72
2023/07/15 02:04:13;;;;;;;;;;;25.20;68.30;;;;;;5075115;28;20596;-71
2023/07/15 02:06:40;;;;;;;;;;;25.30;68.80;;;;;;5075214;28;20481;-71
2023/07/15 02:09:08;;;;;;;;;;;25.50;65.70;;;;;;5074810;28;20005;-74
2023/07/15 02:14:37;;;;;;;;;;;25.10;61.20;;;;;;5074265;28;20113;-72
2023/07/15 02:17:04;;;;;;;;;;;24.80;62.30;;;;;;5075194;28;20090;-73
2023/07/15 02:19:31;;;;;;;;;;;25.20;59.60;;;;;;5074915;28;20085;-72
2023/07/15 02:21:58;;;;;;;;;;;25.20;51.40;;;;;;5074821;28;20397;-72
2023/07/15 02:24:24;;;;;;;;;;;25.00;45.80;;;;;;5075447;28;20080;-72
2023/07/15 02:26:51;;;;;;;;;;;24.90;43.80;;;;;;5074908;28;20176;-72
2023/07/15 02:29:18;;;;;;;;;;;25.20;43.20;;;;;;5073375;28;20004;-73
2023/07/15 02:31:45;;;;;;;;;;;25.10;42.10;;;;;;5074969;28;20136;-73
2023/07/15 02:34:13;;;;;;;;;;;24.80;40.10;;;;;;5074389;28;20110;-72
2023/07/15 02:36:39;;;;;;;;;;;25.10;39.50;;;;;;5074451;28;20096;-74
2023/07/15 02:39:06;;;;;;;;;;;25.00;38.40;;;;;;5074151;28;19971;-73
2023/07/15 02:41:33;;;;;;;2.80;0.60;;;25.30;39.00;;;;;;5075409;28;20214;-72
2023/07/15 02:44:00;;;;;;;1.57;0.77;;;25.30;36.80;;;;;;5073959;28;20599;-71
2023/07/15 02:46:28;;;;;;;2.50;0.70;;;25.10;34.70;;;;;;5075483;28;20176;-72
2023/07/15 02:48:55;;;;;;;4.87;0.70;;;25.30;36.20;;;;;;5074884;28;20208;-73
2023/07/15 02:51:24;;;;;;;7.93;0.83;;;25.90;35.30;;;;;;5075188;28;20210;-72
2023/07/15 02:53:51;;;;;;;7.83;0.73;;;25.70;34.20;;;;;;5075024;28;20172;-72
2023/07/15 02:56:19;;;;;;;2.60;0.90;;;25.50;32.60;;;;;;5073578;28;20180;-72
2023/07/15 02:58:46;;;;;;;4.40;0.93;;;25.50;32.00;;;;;;5074991;28;20652;-72
2023/07/15 03:01:13;;;;;;;3.10;0.63;;;25.40;32.50;;;;;;5072585;28;20351;-73
2023/07/15 03:03:41;;;;;;;5.43;0.70;;;25.40;30.00;;;;;;5074643;28;20231;-72
2023/07/15 03:06:09;;;;;;;1.80;0.57;;;25.50;30.70;;;;;;5073493;28;20577;-72
2023/07/15 03:08:36;;;;;;;4.63;0.90;;;25.40;31.70;;;;;;5074708;28;20223;-72
2023/07/15 03:11:08;;;;;;;5.90;1.03;;;25.30;30.60;;;;;;5075181;28;20258;-72
2023/07/15 03:13:35;;;;;;;2.67;0.80;;;25.30;30.10;;;;;;5074950;28;20172;-73
2023/07/15 03:16:04;;;;;;;1.37;0.60;;;25.10;29.10;;;;;;5074409;28;20175;-71
2023/07/15 03:18:31;;;;;;;2.17;0.80;;;25.10;29.50;;;;;;5074802;28;20211;-72
2023/07/15 03:20:58;;;;;;;2.17;0.83;;;25.10;29.60;;;;;;5074477;28;20167;-72
2023/07/15 03:23:26;;;;;;;1.77;0.70;;;25.10;29.80;;;;;;5073164;28;20232;-72
2023/07/15 03:25:53;;;;;;;2.60;1.10;;;25.00;28.50;;;;;;5074697;28;20164;-72
2023/07/15 03:28:20;;;;;;;1.50;0.80;;;25.20;29.50;;;;;;5074757;28;20565;-72
2023/07/15 03:30:48;;;;;;;0.87;0.53;;;25.40;29.60;;;;;;5072940;28;20176;-70
2023/07/15 03:33:15;;;;;;;2.13;0.70;;;25.70;28.20;;;;;;5074265;28;20169;-72
2023/07/15 03:35:45;;;;;;;3.30;0.60;;;25.90;28.70;;;;;;5073921;28;20593;-72
2023/07/15 03:38:13;;;;;;;3.30;0.83;;;25.60;28.90;;;;;;5074075;28;20175;-71
2023/07/15 03:40:40;;;;;;;1.90;0.70;;;25.40;28.90;;;;;;5074151;28;20172;-72
2023/07/15 03:43:07;;;;;;;1.83;0.80;;;25.50;29.40;;;;;;5074266;28;20174;-72
2023/07/15 03:45:35;;;;;;;4.37;0.93;;;25.40;29.00;;;;;;5074016;28;20182;-72
2023/07/15 03:48:02;;;;;;;2.50;0.70;;;25.40;29.40;;;;;;5073924;28;20188;-72
2023/07/15 03:50:30;;;;;;;1.50;0.60;;;25.40;29.40;;;;;;5073817;28;20175;-72
2023/07/15 03:52:57;;;;;;;4.50;0.80;;;25.40;30.40;;;;;;5073933;28;20546;-72
2023/07/15 03:55:24;;;;;;;5.23;1.90;;;25.20;29.40;;;;;;5073684;28;20638;-72
2023/07/15 03:57:52;;;;;;;1.50;0.60;;;25.20;30.00;;;;;;5073980;28;20175;-72
2023/07/15 04:00:19;;;;;;;1.47;0.60;;;25.40;29.50;;;;;;5073603;28;20179;-71
2023/07/15 04:02:49;;;;;;;3.13;0.80;;;25.20;30.00;;;;;;5073766;28;20171;-71
2023/07/15 04:05:16;;;;;;;0.50;0.40;;;25.00;30.00;;;;;;5073497;28;20176;-70
2023/07/15 04:07:44;;;;;;;3.93;0.83;;;25.10;30.10;;;;;;5073857;28;20592;-71
2023/07/15 04:10:11;;;;;;;2.33;1.07;;;25.20;30.70;;;;;;5073672;28;20186;-70
2023/07/15 04:12:39;;;;;;;2.23;0.63;;;25.20;30.70;;;;;;5073351;28;20175;-71
2023/07/15 04:15:07;;;;;;;1.50;0.70;;;25.20;31.30;;;;;;5073568;28;20183;-70
2023/07/15 04:17:34;;;;;;;2.07;0.67;;;25.20;31.30;;;;;;5073402;28;20186;-70
2023/07/15 04:20:07;;;;;;;1.63;0.70;;;25.10;31.40;;;;;;5072243;28;20782;-70
2023/07/15 04:22:37;;;;;;;0.93;0.67;;;25.00;31.50;;;;;;5073204;28;20220;-71
2023/07/15 04:25:05;;;;;;;3.93;1.07;;;25.00;32.20;;;;;;5073403;28;20175;-70
2023/07/15 04:27:32;;;;;;;4.73;1.00;;;25.20;32.80;;;;;;5071994;28;20207;-71
2023/07/15 04:30:00;;;;;;;2.53;0.80;;;25.20;31.50;;;;;;5073811;28;20513;-70
2023/07/15 04:32:27;;;;;;;3.03;0.90;;;25.40;32.50;;;;;;5073203;28;20179;-70
2023/07/15 04:34:54;;;;;;;1.83;0.70;;;25.10;31.80;;;;;;5073632;28;20172;-70
2023/07/15 04:37:22;;;;;;;1.70;0.90;;;24.90;32.30;;;;;;5072991;28;20637;-71
2023/07/15 04:39:50;;;;;;;1.87;0.77;;;24.80;33.20;;;;;;5073061;28;20188;-71
2023/07/15 04:42:18;;;;;;;1.17;0.90;;;24.60;33.20;;;;;;5073058;28;20180;-70
2023/07/15 04:44:45;;;;;;;2.70;0.90;;;24.30;32.70;;;;;;5073163;28;20176;-71
2023/07/15 04:47:13;;;;;;;3.50;0.90;;;24.10;33.80;;;;;;5073065;28;20215;-69
2023/07/15 04:49:40;;;;;;;2.93;0.73;;;24.10;34.20;;;;;;5071967;28;20219;-69
2023/07/15 04:52:08;;;;;;;3.57;0.73;;;24.10;34.20;;;;;;5071838;28;20187;-68
2023/07/15 04:54:35;;;;;;;2.53;0.80;;;24.10;35.20;;;;;;5072797;28;20266;-69
2023/07/15 04:57:02;;;;;;;1.23;0.83;;;24.30;36.30;;;;;;5072884;28;20541;-67
2023/07/15 04:59:30;;;;;;;2.83;1.10;;;24.40;36.30;;;;;;5073051;28;20208;-69
2023/07/15 05:01:57;;;;;;;3.10;0.70;;;24.50;36.30;;;;;;5072832;28;20168;-69
2023/07/15 05:04:25;;;;;;;3.23;0.80;;;24.50;36.20;;;;;;5072972;28;20237;-68
2023/07/15 05:06:53;;;;;;;0.97;0.80;;;24.30;36.20;;;;;;5072595;28;20176;-68
2023/07/15 05:09:20;;;;;;;1.67;0.87;;;24.30;35.80;;;;;;5072403;28;20246;-69
2023/07/15 05:11:48;;;;;;;1.90;0.70;;;24.20;36.70;;;;;;5072740;28;20172;-72
2023/07/15 05:14:15;;;;;;;1.37;0.70;;;24.00;36.70;;;;;;5072876;28;20171;-69
2023/07/15 05:16:44;;;;;;;2.93;0.90;;;24.10;38.00;;;;;;5072715;28;20349;-68
2023/07/15 05:19:11;;;;;;;0.70;0.70;;;24.30;38.90;;;;;;5072631;28;20176;-71
2023/07/15 05:21:39;;;;;;;2.63;1.03;;;24.20;37.60;;;;;;5072434;28;20210;-70
2023/07/15 05:24:06;;;;;;;4.50;0.80;;;24.40;38.10;;;;;;5074395;28;20169;-69
2023/07/15 05:26:34;;;;;;;2.00;0.93;;;24.40;37.80;;;;;;5076781;28;20262;-71
2023/07/15 05:29:02;;;;;;;1.50;1.00;;;24.00;38.80;;;;;;5076669;28;20260;-69
2023/07/15 05:31:30;;;;;;;1.80;0.83;;;23.60;38.60;;;;;;5076967;28;20545;-71
2023/07/15 05:33:57;;;;;;;2.30;1.10;;;23.30;40.10;;;;;;5076423;28;20180;-71
2023/07/15 05:36:24;;;;;;;1.53;1.10;;;23.10;41.60;;;;;;5076290;28;20277;-71
2023/07/15 05:38:52;;;;;;;4.87;1.00;;;22.90;43.10;;;;;;5076272;28;20179;-71
2023/07/15 05:41:19;;;;;;;2.03;1.13;;;22.90;42.60;;;;;;5076490;28;20237;-71
2023/07/15 05:43:46;;;;;;;2.10;0.90;;;22.80;42.10;;;;;;5076478;28;20200;-67
2023/07/15 05:46:14;;;;;;;2.30;1.30;;;22.70;43.00;;;;;;5075098;28;20184;-71
2023/07/15 05:48:41;;;;;;;1.93;1.30;;;22.60;44.50;;;;;;5076113;28;20218;-70
2023/07/15 05:51:10;;;;;;;2.60;1.10;;;22.50;44.20;;;;;;5076284;28;20175;-71
2023/07/15 05:53:37;;;;;;;1.77;1.40;;;22.50;45.50;;;;;;5076292;28;20188;-72
2023/07/15 05:56:05;;;;;;;1.83;1.00;;;22.50;45.90;;;;;;5074688;28;20182;-70
2023/07/15 05:58:32;;;;;;;1.67;1.20;;;22.50;46.30;;;;;;5076002;28;20182;-72
2023/07/15 06:01:00;;;;;;;2.53;1.27;;;22.40;45.90;;;;;;5076038;28;20191;-73
2023/07/15 06:03:33;;;;;;;2.53;1.53;;;22.40;47.20;;;;;;5075926;28;20168;-71
2023/07/15 06:06:04;;;;;;;1.00;0.90;;;22.40;47.10;;;;;;5074889;28;20639;-71
2023/07/15 06:08:32;;;;;;;0.80;0.70;;;22.30;48.40;;;;;;5074503;28;20207;-71
2023/07/15 06:11:00;;;;;;;2.20;1.20;;;22.30;49.60;;;;;;5076009;28;20172;-72
2023/07/15 06:13:27;;;;;;;2.63;1.20;;;22.20;50.00;;;;;;5076073;28;20231;-72
2023/07/15 06:15:55;;;;;;;3.30;1.10;;;22.10;51.00;;;;;;5075755;28;20168;-70
2023/07/15 06:18:23;;;;;;;2.97;1.17;;;22.00;52.00;;;;;;5074528;28;20284;-72
2023/07/15 06:20:51;;;;;;;3.80;1.10;;;21.90;51.80;;;;;;5075836;28;20183;-71
2023/07/15 06:23:18;;;;;;;1.87;1.10;;;21.90;53.00;;;;;;5075981;28;20689;-71
2023/07/15 06:25:46;;;;;;;1.93;1.10;;;21.80;53.30;;;;;;5075702;28;20179;-70
2023/07/15 06:28:13;;;;;;;3.53;1.10;;;21.80;52.80;;;;;;5074580;28;20212;-72
2023/07/15 06:30:40;;;;;;;3.20;1.40;;;21.80;53.90;;;;;;5075577;28;20183;-71
2023/07/15 06:33:08;;;;;;;4.43;1.70;;;21.70;54.30;;;;;;5075637;28;20241;-71
2023/07/15 06:35:35;;;;;;;1.70;1.47;;;21.70;54.70;;;;;;5075304;28;20206;-70
2023/07/15 06:38:03;;;;;;;2.50;1.37;;;21.60;54.30;;;;;;5075632;28;20175;-70
2023/07/15 06:40:30;;;;;;;1.83;1.53;;;21.60;54.60;;;;;;5075369;28;20180;-70
2023/07/15 06:42:57;;;;;;;4.27;1.47;;;21.50;55.50;;;;;;5075998;28;20186;-70
2023/07/15 06:45:36;;;;;;;4.03;1.50;;;21.40;56.20;;;;;;5075195;28;20253;-70
2023/07/15 06:48:03;;;;;;;2.03;1.40;;;21.30;57.30;;;;;;5075311;28;20178;-71
2023/07/15 06:50:31;;;;;;;3.50;1.73;;;21.30;57.30;;;;;;5075271;28;20178;-71
2023/07/15 06:52:58;;;;;;;2.63;1.67;;;21.20;57.90;;;;;;5075056;28;20173;-72
2023/07/15 06:55:26;;;;;;;2.97;1.60;;;21.20;58.40;;;;;;5074774;28;20321;-70
2023/07/15 06:57:54;;;;;;;3.40;2.00;;;21.20;58.50;;;;;;5075386;28;20252;-70
2023/07/15 07:00:22;;;;;;;2.67;1.73;;;21.10;59.50;;;;;;5075316;28;20172;-70
2023/07/15 07:02:50;;;;;;;3.27;2.10;;;21.10;60.50;;;;;;5074738;28;20191;-71
2023/07/15 07:05:19;;;;;;;3.97;2.10;;;20.90;62.40;;;;;;5074765;28;20652;-72
2023/07/15 07:07:47;;;;;;;3.83;2.23;;;20.70;65.20;;;;;;5074715;28;20176;-71
2023/07/15 07:10:17;;;;;;;5.90;2.10;;;20.50;68.50;;;;;;5075068;28;20199;-71
2023/07/15 07:12:46;;;;;;;5.53;2.67;;;20.40;70.80;;;;;;5073457;28;20186;-70
2023/07/15 07:15:13;;;;;;;3.27;1.93;;;20.30;73.30;;;;;;5074385;28;20176;-72
2023/07/15 07:17:41;;;;;;;3.87;2.40;;;20.20;75.10;;;;;;5074667;28;20183;-71
2023/07/15 07:20:09;;;;;;;3.47;2.20;;;20.10;76.10;;;;;;5074559;28;20187;-72
2023/07/15 07:22:36;;;;;;;4.73;2.83;;;20.00;78.80;;;;;;5074279;28;20310;-71
2023/07/15 07:25:04;;;;;;;10.03;2.70;;;19.90;81.30;;;;;;5074390;28;20181;-71
2023/07/15 07:27:32;;;;;;;4.87;3.10;;;19.90;82.90;;;;;;5074266;28;20202;-72
2023/07/15 07:29:59;;;;;;;8.30;2.77;;;19.70;86.50;;;;;;5074137;28;20301;-70
2023/07/15 07:32:27;;;;;;;5.47;2.77;;;19.50;91.60;;;;;;5074132;28;20269;-70
2023/07/15 07:34:54;;;;;;;4.20;2.67;;;19.50;93.20;;;;;;5074178;28;20218;-71
2023/07/15 07:37:22;;;;;;;4.87;2.90;;;19.30;93.30;;;;;;5074243;28;20174;-69
2023/07/15 07:39:51;;;;;;;4.37;2.60;;;19.20;96.10;;;;;;5074442;28;20204;-71
2023/07/15 07:42:20;;;;;;;7.37;2.10;;;19.30;96.20;;;;;;5074049;28;20595;-71
2023/07/15 07:44:47;;;;;;;4.73;1.93;;;19.40;96.20;;;;;;5074306;28;20653;-68
2023/07/15 07:47:14;;;;;;;3.57;2.50;;;19.50;95.70;;;;;;5074031;28;20554;-69
2023/07/15 07:49:42;;;;;;;4.63;2.70;;;19.50;95.80;;;;;;5074172;28;20757;-68
2023/07/15 07:52:09;;;;;;;3.33;2.53;;;19.50;97.00;;;;;;5074527;28;20175;-68
2023/07/15 07:54:37;;;;;;;2.90;1.87;;;19.40;97.30;;;;;;5074139;28;20185;-68
2023/07/15 07:57:05;;;;;;;7.50;2.60;;;19.30;97.80;;;;;;5074084;28;20598;-69
2023/07/15 07:59:32;;;;;;;4.40;2.57;;;19.30;99.90;;;;;;5074032;28;20179;-68
2023/07/15 08:01:59;;;;;;;2.97;2.03;;;19.30;99.70;;;;;;5074039;28;20190;-70
2023/07/15 08:04:27;;;;;;;4.10;2.37;;;19.30;99.60;;;;;;5073956;28;20176;-69
2023/07/15 08:06:55;;;;;;;3.60;2.47;;;19.20;99.90;;;;;;5073935;28;20196;-68
2023/07/15 08:09:22;;;;;;;7.20;1.77;;;19.20;99.90;;;;;;5073944;28;20206;-68
2023/07/15 08:11:50;;;;;;;4.30;2.43;;;19.10;99.90;;;;;;5074170;28;20641;-68
2023/07/15 08:14:18;;;;;;;4.33;2.27;;;19.00;99.90;;;;;;5072438;28;20186;-70
2023/07/15 08:16:45;;;;;;;5.87;2.60;;;18.90;99.90;;;;;;5072284;28;20172;-69
2023/07/15 08:19:13;;;;;;;3.90;2.33;;;18.90;99.90;;;;;;5073794;28;20201;-68
2023/07/15 08:21:41;;;;;;;5.53;3.53;;;18.80;99.90;;;;;;5073464;28;20173;-69
2023/07/15 08:24:12;;;;;;;6.47;3.70;;;18.80;99.90;;;;;;5073599;28;20190;-67
2023/07/15 08:26:39;;;;;;;7.30;4.00;;;18.90;99.90;;;;;;5073567;28;20201;-69
2023/07/15 08:29:06;;;;;;;5.60;3.50;;;18.80;99.90;;;;;;5073195;28;20213;-68
2023/07/15 08:31:34;;;;;;;5.00;3.33;;;18.80;99.90;;;;;;5073252;28;20195;-70
2023/07/15 08:34:03;;;;;;;6.93;3.70;;;18.60;99.90;;;;;;5073583;28;20183;-70
2023/07/15 08:36:30;;;;;;;6.17;3.50;;;18.50;99.90;;;;;;5073178;28;20187;-72
2023/07/15 08:39:00;;;;;;;9.90;3.50;;;18.30;99.90;;;;;;5073282;28;20225;-69
2023/07/15 08:41:31;;;;;;;5.53;3.93;;;18.20;99.90;;;;;;5072031;28;20581;-69
2023/07/15 08:44:01;;;;;;;7.97;4.50;;;18.20;99.90;;;;;;5071757;28;20179;-72
2023/07/15 08:46:33;;;;;;;6.53;4.37;;;18.00;99.90;;;;;;5073290;28;20169;-70
2023/07/15 08:49:02;;;;;;;5.67;3.97;;;17.90;99.90;;;;;;5071742;28;20615;-71
2023/07/15 08:51:35;;;;;;;7.37;3.23;;;17.80;99.90;;;;;;5073279;28;20365;-72
2023/07/15 08:54:06;;;;;;;9.77;3.27;;;17.70;99.90;;;;;;5071779;28;20180;-69
2023/07/15 08:56:34;;;;;;;10.67;3.87;;;17.90;99.90;;;;;;5072919;28;20276;-70
2023/07/15 08:59:06;;;;;;;8.63;3.43;;;18.00;99.90;;;;;;5072115;28;20656;-70
2023/07/15 09:01:37;;;;;;;8.50;3.80;;;18.00;99.90;;;;;;5071925;28;20176;-69
2023/07/15 09:04:08;;;;;;;6.50;3.20;;;18.00;99.90;;;;;;5073704;28;20255;-69
2023/07/15 09:06:35;;;;;;;4.17;3.23;;;18.00;99.90;;;;;;5072914;28;20266;-70
2023/07/15 09:09:05;;;;;;;5.80;3.33;;;17.90;99.90;;;;;;5072980;28;20222;-70
2023/07/15 09:11:40;;;;;;;6.67;3.93;;;17.80;99.90;;;;;;5072882;28;20506;-69
2023/07/15 09:14:16;;;;;;;9.57;4.57;;;17.80;99.90;;;;;;5072957;28;20179;-69
2023/07/15 09:16:44;;;;;;;7.33;4.53;;;17.80;99.90;;;;;;5072657;28;20174;-70
2023/07/15 09:19:12;;;;;;;7.80;4.50;;;17.80;99.90;;;;;;5072763;28;20183;-70
2023/07/15 09:21:50;;;;;;;5.50;3.90;;;17.70;99.90;;;;;;5072734;28;20169;-68
2023/07/15 09:24:17;;;;;;;5.87;3.10;;;17.70;99.90;;;;;;5073050;28;20195;-70
2023/07/15 09:26:49;;;;;;;5.10;2.80;;;17.80;99.90;;;;;;5072810;28;20168;-69
2023/07/15 09:29:19;;;;;;;3.27;2.80;;;17.90;99.90;;;;;;5072820;28;20296;-68
2023/07/15 09:31:46;;;;;;;4.30;2.80;;;18.00;99.90;;;;;;5072919;28;20176;-70
2023/07/15 09:34:14;;;;;;;4.17;2.57;;;17.90;99.90;;;;;;5072702;28;20175;-72
2023/07/15 09:36:41;;;;;;;3.80;2.53;;;18.00;99.90;;;;;;5072590;28;20176;-71
2023/07/15 09:39:17;;;;;;;4.67;2.87;;;18.00;99.90;;;;;;5071567;28;20191;-70
2023/07/15 09:41:45;;;;;;;4.73;2.70;;;18.00;99.90;;;;;;5072539;28;20171;-69
2023/07/15 09:44:15;;;;;;;5.50;3.10;;;17.90;99.90;;;;;;5072592;28;20574;-70
2023/07/15 09:46:44;;;;;;;5.47;3.30;;;17.80;99.90;;;;;;5072550;28;20630;-70
2023/07/15 09:49:11;;;;;;;7.40;3.33;;;17.70;99.90;;;;;;5072542;28;20234;-69
2023/07/15 09:51:42;;;;;;;6.57;3.53;;;17.70;99.90;;;;;;5072760;28;20705;-69
2023/07/15 09:54:10;;;;;;;7.60;3.13;;;17.70;99.90;;;;;;5072641;28;20176;-69
2023/07/15 09:56:44;;;;;;;3.60;2.50;;;17.60;99.90;;;;;;5072410;28;20179;-68
2023/07/15 09:59:22;;;;;;;4.53;2.70;;;17.70;99.90;;;;;;5073108;28;20175;-69
2023/07/15 10:01:54;;;;;;;5.53;2.50;;;17.70;99.90;;;;;;5072612;28;20207;-70
2023/07/15 10:04:35;;;;;;;4.90;2.90;;;17.90;99.90;;;;;;5072865;28;20176;-69
2023/07/15 10:07:04;;;;;;;9.33;3.30;;;18.10;99.90;;;;;;5072325;28;20168;-69
2023/07/15 10:09:34;;;;;;;6.50;3.43;;;18.20;99.90;;;;;;5072910;28;20243;-68
2023/07/15 10:12:03;;;;;;;4.13;2.97;;;18.30;99.90;;;;;;5076415;28;20633;-69
2023/07/15 10:14:31;;;;;;;6.40;2.67;;;18.30;99.90;;;;;;5076578;28;20263;-68
2023/07/15 10:17:12;;;;;;;4.70;3.57;;;18.40;99.90;;;;;;5076166;28;20266;-70
2023/07/15 10:19:49;;;;;;;3.60;2.40;;;18.50;99.90;;;;;;5076084;28;20175;-69
2023/07/15 10:22:19;;;;;;;3.07;2.40;;;18.50;99.90;;;;;;5075815;28;20219;-69
2023/07/15 10:24:57;;;;;;;4.57;2.63;;;18.50;99.90;;;;;;5075913;28;20184;-69
2023/07/15 10:27:29;;;;;;;3.40;3.00;;;18.50;99.90;;;;;;5075876;28;20574;-68
2023/07/15 10:30:25;;;;;;;3.57;2.63;;;18.50;99.90;;;;;;5075842;28;20219;-71
2023/07/15 10:33:04;;;;;;;6.10;2.63;;;18.50;99.90;;;;;;5072417;28;20271;-70
2023/07/15 10:35:55;;;;;;;4.47;3.20;;;18.50;99.90;;;;;;5075641;28;20180;-69
2023/07/15 10:38:32;;;;;;;3.20;2.27;;;18.40;99.90;;;;;;5075191;28;20231;-69
2023/07/15 10:41:04;;;;;;;4.63;2.77;;;18.40;99.90;;;;;;5075488;28;20180;-69
2023/07/15 10:43:34;;;;;;;3.43;2.60;;;18.50;99.90;;;;;;5075438;28;20184;-70
2023/07/15 10:46:06;;;;;;;3.30;2.57;;;18.60;99.90;;;;;;5075355;28;20179;-69
2023/07/15 10:48:34;;;;;;;3.67;2.40;;;18.60;99.90;;;;;;5075135;28;20548;-70
2023/07/15 10:51:05;;;;;;;3.10;2.50;;;18.50;99.90;;;;;;5075554;28;20239;-69
2023/07/15 10:53:33;;;;;;;3.53;2.03;;;18.50;99.90;;;;;;5075458;28;20180;-70
2023/07/15 10:56:06;;;;;;;3.90;2.43;;;18.50;99.90;;;;;;5075325;28;20195;-70
2023/07/15 10:58:34;;;;;;;3.23;1.90;;;18.60;99.90;;;;;;5075156;28;20606;-70
2023/07/15 11:01:09;;;;;;;3.97;1.93;;;18.50;99.90;;;;;;5075731;28;20172;-70
2023/07/15 11:03:42;;;;;;;2.77;1.80;;;18.40;99.90;;;;;;5075493;28;20578;-69
2023/07/15 11:06:10;;;;;;;5.13;2.40;;;18.30;99.90;;;;;;5075282;28;20333;-70
2023/07/15 11:08:39;;;;;;;3.17;2.10;;;18.20;99.90;;;;;;5074982;28;20677;-70
2023/07/15 11:11:08;;;;;;;4.23;2.00;;;18.20;99.90;;;;;;5074848;28;20168;-70
2023/07/15 11:13:43;;;;;;;4.20;2.50;;;18.30;99.90;;;;;;5075046;28;20168;-69
2023/07/15 11:16:11;;;;;;;4.27;2.53;;;18.40;99.90;;;;;;5074698;28;20213;-71
2023/07/15 11:18:38;;;;;;;3.67;2.80;;;18.20;99.90;;;;;;5073608;28;20184;-69
2023/07/15 11:21:06;;;;;;;3.43;2.63;;;18.00;99.90;;;;;;5074016;28;20579;-70
2023/07/15 11:23:33;;;;;;;5.57;2.63;;;17.90;99.90;;;;;;5074742;28;20711;-71
2023/07/15 11:26:11;;;;;;;5.47;2.50;;;17.80;99.90;;;;;;5073137;28;20192;-70
2023/07/15 11:28:51;;;;;;;3.50;2.63;;;17.80;99.90;;;;;;5074645;28;20609;-70
2023/07/15 11:31:22;;;;;;;3.13;2.30;;;17.70;99.90;;;;;;5074677;28;20257;-70
2023/07/15 11:33:53;;;;;;;3.97;2.00;;;17.60;99.90;;;;;;5074723;28;20304;-70
2023/07/15 11:36:20;;;;;;;3.43;2.30;;;17.40;99.90;;;;;;5074266;28;20544;-70
2023/07/15 11:38:48;;;;;;;3.83;2.03;;;17.30;99.90;;;;;;5074521;28;20545;-70
2023/07/15 11:41:15;;;;;;;5.23;2.13;;;17.30;99.90;;;;;;5074281;28;20601;-70
2023/07/15 11:43:43;;;;;;;3.93;1.90;;;17.10;99.90;;;;;;5074209;28;20182;-70
2023/07/15 11:46:10;;;;;;;3.50;2.00;;;17.10;99.90;;;;;;5072704;28;20264;-68
2023/07/15 11:48:40;;;;;;;2.57;1.93;;;17.00;99.90;;;;;;5073085;28;20207;-68
2023/07/15 11:51:09;;;;;;;4.20;2.03;;;16.90;99.90;;;;;;5074932;28;20180;-70
2023/07/15 11:53:38;;;;;;;4.23;2.17;;;16.90;99.90;;;;;;5073368;28;20176;-69
2023/07/15 11:56:06;;;;;;;6.70;2.20;;;16.80;99.90;;;;;;5074361;28;20184;-69
2023/07/15 11:58:49;;;;;;;4.30;2.50;;;16.70;99.90;;;;;;5074267;28;20225;-69
2023/07/15 12:01:20;;;;;;;4.93;2.60;;;16.70;99.90;;;;;;5074056;28;20263;-69
2023/07/15 12:03:48;;;;;;;6.60;2.60;;;16.70;99.90;;;;;;5074167;28;20676;-69
2023/07/15 12:06:17;;;;;;;5.73;3.00;;;16.90;99.90;;;;;;5074122;28;20722;-68
2023/07/15 12:09:02;;;;;;;7.27;3.10;;;16.90;99.90;;;;;;5073799;28;20302;-69
2023/07/15 12:11:31;;;;;;;4.37;3.00;;;17.00;99.90;;;;;;5073933;28;20183;-68
2023/07/15 12:14:00;;;;;;;6.10;3.33;;;16.90;99.90;;;;;;5073521;28;20187;-70
2023/07/15 12:16:28;;;;;;;5.53;2.70;;;16.90;99.90;;;;;;5073385;28;20210;-69
2023/07/15 12:18:57;;;;;;;7.97;3.60;;;16.80;99.90;;;;;;5073544;28;20176;-70
2023/07/15 12:21:25;;;;;;;7.37;3.20;;;16.90;99.90;;;;;;5073569;28;20164;-69
2023/07/15 12:23:55;;;;;;;5.33;3.13;;;16.90;99.90;;;;;;5073260;28;20219;-69
2023/07/15 12:26:23;;;;;;;5.07;3.20;;;16.90;99.90;;;;;;5073298;28;20180;-70
2023/07/15 12:28:51;;;;;;;8.13;3.83;;;16.90;99.90;;;;;;5073265;28;20306;-69
2023/07/15 12:31:22;;;;;;;8.80;3.60;;;16.90;99.90;;;;;;5073267;28;20227;-68
2023/07/15 12:33:49;;;;;;;9.87;3.53;;;16.90;99.90;;;;;;5073356;28;20176;-68
2023/07/15 12:36:18;;;;;;;6.97;3.00;;;16.90;99.90;;;;;;5073257;28;20168;-68
2023/07/15 12:38:46;;;;;;;6.10;3.17;;;16.90;99.90;;;;;;5073714;28;20201;-69
2023/07/15 12:41:14;;;;;;;7.97;3.73;;;16.90;99.90;;;;;;5073523;28;20179;-69
2023/07/15 12:43:41;;;;;;;7.53;3.40;;;17.00;99.90;;;;;;5074255;28;20551;-71
2023/07/15 12:46:09;;;;;;;7.13;3.00;;;17.00;99.90;;;;;;5073791;28;20234;-68
2023/07/15 12:48:41;;;;;;;6.77;3.50;;;16.90;99.90;;;;;;5073538;28;20215;-70
2023/07/15 12:51:08;;;;;;;8.77;3.33;;;16.90;99.90;;;;;;5073646;28;20697;-69
2023/07/15 12:53:37;;;;;;;9.27;3.87;;;16.80;99.90;;;;;;5072154;28;20226;-69
2023/07/15 12:56:04;;;;;;;8.23;4.37;;;16.70;99.90;;;;;;5073342;28;20207;-70
2023/07/15 12:58:32;;;;;;;8.23;3.63;;;16.80;99.90;;;;;;5073345;28;20178;-70
2023/07/15 13:01:00;;;;;;;6.83;4.53;;;16.70;99.90;;;;;;5073456;28;20252;-68
2023/07/15 13:03:27;;;;;;;10.40;5.67;;;16.70;99.90;;;;;;5073453;28;20197;-70
2023/07/15 13:05:56;;;;;;;8.33;5.17;;;16.60;99.90;;;;;;5073076;28;20171;-69
2023/07/15 13:08:23;;;;;;;11.30;5.90;;;16.50;99.90;;;;;;5073013;28;20207;-69
2023/07/15 13:10:52;;;;;;;22.03;7.43;;;16.40;99.90;;;;;;5073289;28;20180;-69
2023/07/15 13:13:20;;;;;;;16.33;7.30;;;16.40;99.90;;;;;;5073048;28;20179;-69